LFSN/ENC METAR and TAF weather

Enter ICAO airport designator
Station Type Date Time Source
LFSN METAR 2020/02/20 18:30 UTC NOAA

LFSN 201830Z AUTO 21014KT 190V260 CAVOK 10/02 Q1018


Station Type Date Time Source
LFSN Decoded METAR 2020/02/20 18:30 UTC NOAA

Nancy / Essey, France (LFSN) 48-41N 006-13E 217M
Feb 20, 2020 - 01:30 PM EST / 2020.02.20 1830 UTC
Wind: from the SSW (210 degrees) at 16 MPH (14 KT) (direction variable):0
Visibility: greater than 7 mile(s):0
Temperature: 50 F (10 C)
Dew Point: 35 F (2 C)
Relative Humidity: 57%
Pressure (altimeter): 30.06 in. Hg (1018 hPa)
ob: LFSN 201830Z AUTO 21014KT 190V260 CAVOK 10/02 Q1018
cycle: 18

Station Type Date Time Source
LFSN TAF 2012/03/14 16:58 UTC NOAA

TAF LFSN 141600Z 1416/1512 CNL

Example: see airport list